createdAt,value
2024-04-13T00:01:20.273Z,9.70
2024-04-13T00:03:47.502Z,11.60
2024-04-13T00:06:14.484Z,10.30
2024-04-13T00:08:41.888Z,12.10
2024-04-13T00:11:09.635Z,11.20
2024-04-13T00:13:37.558Z,12.80
2024-04-13T00:16:04.680Z,11.60
2024-04-13T00:18:34.307Z,9.60
2024-04-13T00:21:01.426Z,12.30
2024-04-13T00:23:29.179Z,14.20
2024-04-13T00:25:57.981Z,9.70
2024-04-13T00:28:25.116Z,10.50
2024-04-13T00:30:52.379Z,11.40
2024-04-13T00:33:20.592Z,9.50
2024-04-13T00:35:47.819Z,10.50
2024-04-13T00:38:14.821Z,12.10
2024-04-13T00:40:43.296Z,10.40
2024-04-13T00:43:11.459Z,10.50
2024-04-13T00:45:44.077Z,11.10
2024-04-13T00:48:12.796Z,13.00
2024-04-13T00:50:39.605Z,9.50
2024-04-13T00:53:06.835Z,11.70
2024-04-13T00:55:34.667Z,12.40
2024-04-13T00:58:02.110Z,12.10
2024-04-13T01:00:29.344Z,12.30
2024-04-13T01:02:56.502Z,11.20
2024-04-13T01:05:23.544Z,12.10
2024-04-13T01:07:50.758Z,10.70
2024-04-13T01:10:18.694Z,14.10
2024-04-13T01:12:47.432Z,13.40
2024-04-13T01:15:14.298Z,12.30
2024-04-13T01:17:43.303Z,12.10
2024-04-13T01:20:11.050Z,14.10
2024-04-13T01:22:43.578Z,12.80
2024-04-13T01:25:11.338Z,14.50
2024-04-13T01:27:38.778Z,13.30
2024-04-13T01:30:09.164Z,13.20
2024-04-13T01:32:36.086Z,11.60
2024-04-13T01:35:12.569Z,11.90
2024-04-13T01:37:40.567Z,12.60
2024-04-13T01:40:09.791Z,13.20
2024-04-13T01:42:36.583Z,13.70
2024-04-13T01:45:03.989Z,14.10
2024-04-13T01:47:31.222Z,12.20
2024-04-13T01:49:58.225Z,15.80
2024-04-13T01:52:25.190Z,14.40
2024-04-13T01:54:52.140Z,11.30
2024-04-13T01:57:20.064Z,13.90
2024-04-13T01:59:47.113Z,15.40
2024-04-13T02:02:14.271Z,13.50
2024-04-13T02:04:41.051Z,16.40
2024-04-13T02:07:08.380Z,12.70
2024-04-13T02:09:35.675Z,14.00
2024-04-13T02:12:03.334Z,15.60
2024-04-13T02:14:30.266Z,19.80
2024-04-13T02:16:57.667Z,13.30
2024-04-13T02:19:24.788Z,11.80
2024-04-13T02:21:52.160Z,12.80
2024-04-13T02:24:18.968Z,14.70
2024-04-13T02:26:46.105Z,17.80
2024-04-13T02:29:13.048Z,15.80
2024-04-13T02:31:39.942Z,13.50
2024-04-13T02:34:07.039Z,15.00
2024-04-13T02:36:34.475Z,14.60
2024-04-13T02:39:02.780Z,16.10
2024-04-13T02:41:29.641Z,18.20
2024-04-13T02:43:56.579Z,14.00
2024-04-13T02:46:24.548Z,15.10
2024-04-13T02:48:51.707Z,18.40
2024-04-13T02:51:18.867Z,17.80
2024-04-13T02:53:45.931Z,15.30
2024-04-13T02:56:12.965Z,15.70
2024-04-13T02:58:39.817Z,15.10
2024-04-13T03:01:07.226Z,16.70
2024-04-13T03:03:34.256Z,20.20
2024-04-13T03:06:06.223Z,18.90
2024-04-13T03:08:33.554Z,17.70
2024-04-13T03:11:01.801Z,18.50
2024-04-13T03:13:29.361Z,16.30
2024-04-13T03:16:04.462Z,17.30
2024-04-13T03:18:31.956Z,16.80
2024-04-13T03:20:59.486Z,20.70
2024-04-13T03:23:26.634Z,19.90
2024-04-13T03:25:53.796Z,18.10
2024-04-13T03:28:25.075Z,15.90
2024-04-13T03:30:52.108Z,21.70
2024-04-13T03:33:19.279Z,18.50
2024-04-13T03:35:46.838Z,19.00
2024-04-13T03:38:14.528Z,20.50
2024-04-13T03:40:41.520Z,18.00
2024-04-13T03:43:08.984Z,20.90
2024-04-13T03:45:36.374Z,18.80
2024-04-13T03:48:03.314Z,16.30
2024-04-13T03:50:30.411Z,19.20
2024-04-13T03:52:58.329Z,17.90
2024-04-13T03:55:25.091Z,18.90
2024-04-13T03:57:52.078Z,24.80
2024-04-13T04:00:20.057Z,16.80
2024-04-13T04:02:47.076Z,19.60
2024-04-13T04:05:14.065Z,20.50
2024-04-13T04:07:40.939Z,20.10
2024-04-13T04:10:08.693Z,20.50
2024-04-13T04:12:35.691Z,21.90
2024-04-13T04:15:02.673Z,17.30
2024-04-13T04:17:29.518Z,20.20
2024-04-13T04:19:56.524Z,18.20
2024-04-13T04:22:23.370Z,19.00
2024-04-13T04:24:51.696Z,18.90
2024-04-13T04:27:19.428Z,21.00
2024-04-13T04:29:46.447Z,18.20
2024-04-13T04:32:13.858Z,19.00
2024-04-13T04:34:40.952Z,18.90
2024-04-13T04:37:07.977Z,18.80
2024-04-13T04:39:35.009Z,17.10
2024-04-13T04:42:01.843Z,16.80
2024-04-13T04:44:29.786Z,16.90
2024-04-13T04:46:57.327Z,19.30
2024-04-13T04:49:24.228Z,14.90
2024-04-13T04:51:51.111Z,17.90
2024-04-13T04:54:20.526Z,18.70
2024-04-13T04:56:47.359Z,17.80
2024-04-13T04:59:14.258Z,14.80
2024-04-13T05:01:40.986Z,17.40
2024-04-13T05:04:08.201Z,14.50
2024-04-13T05:06:35.560Z,18.90
2024-04-13T05:09:06.115Z,16.70
2024-04-13T05:11:34.706Z,16.40
2024-04-13T05:14:01.807Z,15.60
2024-04-13T05:16:28.761Z,18.70
2024-04-13T05:18:55.670Z,17.70
2024-04-13T05:21:22.784Z,19.70
2024-04-13T05:23:49.694Z,16.40
2024-04-13T05:26:16.738Z,16.50
2024-04-13T05:28:43.591Z,14.90
2024-04-13T05:31:11.158Z,19.40
2024-04-13T05:33:39.744Z,18.40
2024-04-13T05:36:07.430Z,17.20
2024-04-13T05:38:34.345Z,16.60
2024-04-13T05:41:01.516Z,15.60
2024-04-13T05:43:28.506Z,16.30
2024-04-13T05:45:55.519Z,15.40
2024-04-13T05:48:22.359Z,16.10
2024-04-13T05:50:59.652Z,15.40
2024-04-13T05:53:27.606Z,17.20
2024-04-13T05:55:54.536Z,16.40
2024-04-13T05:58:21.812Z,14.80
2024-04-13T06:00:49.626Z,14.10
2024-04-13T06:03:16.784Z,16.90
2024-04-13T06:05:44.460Z,16.60
2024-04-13T06:08:11.621Z,15.00
2024-04-13T06:10:39.173Z,17.20
2024-04-13T06:13:06.647Z,14.30
2024-04-13T06:15:33.639Z,16.00
2024-04-13T06:18:00.801Z,18.20
2024-04-13T06:20:28.232Z,16.10
2024-04-13T06:22:55.383Z,17.00
2024-04-13T06:25:25.712Z,16.70
2024-04-13T06:27:54.308Z,17.10
2024-04-13T06:30:21.306Z,14.80
2024-04-13T06:32:48.514Z,14.40
2024-04-13T06:35:15.775Z,17.50
2024-04-13T06:37:42.581Z,14.90
2024-04-13T06:40:13.908Z,16.50
2024-04-13T06:42:40.858Z,15.70
2024-04-13T06:45:08.646Z,15.80
2024-04-13T06:47:36.023Z,18.10
2024-04-13T06:50:04.068Z,17.60
2024-04-13T06:52:30.971Z,19.00
2024-04-13T06:54:57.908Z,12.90
2024-04-13T06:57:25.968Z,16.10
2024-04-13T06:59:53.301Z,17.30
2024-04-13T07:02:22.573Z,15.60
2024-04-13T07:04:49.327Z,15.60
2024-04-13T07:07:17.486Z,13.70
2024-04-13T07:09:44.315Z,15.90
2024-04-13T07:12:11.789Z,16.90
2024-04-13T07:14:38.666Z,17.10
2024-04-13T07:17:05.909Z,15.20
2024-04-13T07:19:33.107Z,13.10
2024-04-13T07:22:00.122Z,12.20
2024-04-13T07:24:29.694Z,14.50
2024-04-13T07:26:56.806Z,13.50
2024-04-13T07:29:23.861Z,13.50
2024-04-13T07:31:50.840Z,14.70
2024-04-13T07:34:19.183Z,11.90
2024-04-13T07:36:46.389Z,11.80
2024-04-13T07:39:13.837Z,13.40
2024-04-13T07:41:40.781Z,11.70
2024-04-13T07:44:09.208Z,12.20
2024-04-13T07:46:37.085Z,15.70
2024-04-13T07:49:06.951Z,15.20
2024-04-13T07:51:34.348Z,10.80
2024-04-13T07:54:01.447Z,12.10
2024-04-13T07:56:28.572Z,11.50
2024-04-13T07:58:55.928Z,12.10
2024-04-13T08:01:22.681Z,9.90
2024-04-13T08:03:49.386Z,10.50
2024-04-13T08:06:16.404Z,11.30
2024-04-13T08:08:42.998Z,13.30
2024-04-13T08:11:11.605Z,13.40
2024-04-13T08:13:38.258Z,13.10
2024-04-13T08:16:08.510Z,11.60
2024-04-13T08:18:35.493Z,10.70
2024-04-13T08:21:02.560Z,9.10
2024-04-13T08:23:29.870Z,9.00
2024-04-13T08:26:03.054Z,12.10
2024-04-13T08:28:31.647Z,14.00
2024-04-13T08:31:01.517Z,15.90
2024-04-13T08:33:28.467Z,17.10
2024-04-13T08:36:05.711Z,12.60
2024-04-13T08:38:32.591Z,12.60
2024-04-13T08:41:02.041Z,14.30
2024-04-13T08:43:28.846Z,12.30
2024-04-13T08:45:56.912Z,12.00
2024-04-13T08:48:24.075Z,13.80
2024-04-13T08:50:51.170Z,25.20
2024-04-13T08:53:21.263Z,20.10
2024-04-13T08:55:48.809Z,17.60
2024-04-13T08:58:19.038Z,9.50
2024-04-13T09:00:52.264Z,12.50
2024-04-13T09:03:20.464Z,17.00
2024-04-13T09:05:47.334Z,10.40
2024-04-13T09:08:17.598Z,16.70
2024-04-13T09:10:48.009Z,14.20
2024-04-13T09:13:14.818Z,13.10
2024-04-13T09:15:41.963Z,11.60
2024-04-13T09:18:10.958Z,11.00
2024-04-13T09:20:38.068Z,9.90
2024-04-13T09:23:06.431Z,10.50
2024-04-13T09:25:33.230Z,11.20
2024-04-13T09:28:07.317Z,9.10
2024-04-13T09:30:34.610Z,7.80
2024-04-13T09:33:07.497Z,11.50
2024-04-13T09:35:34.688Z,9.40
2024-04-13T09:38:02.394Z,12.60
2024-04-13T09:40:31.722Z,15.70
2024-04-13T09:42:58.835Z,15.70
2024-04-13T09:45:26.577Z,13.40
2024-04-13T09:47:56.897Z,12.00
2024-04-13T09:50:23.734Z,10.80
2024-04-13T09:52:50.701Z,11.40
2024-04-13T09:55:19.590Z,8.60
2024-04-13T09:57:47.870Z,12.70
2024-04-13T10:00:17.964Z,11.00
2024-04-13T10:02:45.101Z,15.40
2024-04-13T10:05:12.049Z,11.00
2024-04-13T10:07:40.204Z,13.20
2024-04-13T10:10:14.608Z,13.70
2024-04-13T10:12:44.126Z,11.70
2024-04-13T10:15:11.752Z,9.40
2024-04-13T10:17:40.271Z,13.40
2024-04-13T10:20:08.870Z,9.10
2024-04-13T10:22:38.677Z,12.20
2024-04-13T10:25:10.223Z,10.00
2024-04-13T10:27:39.055Z,13.20
2024-04-13T10:30:08.117Z,12.90
2024-04-13T10:32:35.004Z,10.50
2024-04-13T10:35:12.457Z,15.00
2024-04-13T10:37:39.569Z,10.70
2024-04-13T10:40:08.517Z,10.40
2024-04-13T10:42:42.406Z,10.90
2024-04-13T10:45:18.631Z,10.00
2024-04-13T10:47:45.899Z,9.60
2024-04-13T10:50:14.940Z,9.70
2024-04-13T10:52:41.944Z,8.40
2024-04-13T10:55:13.126Z,12.40
2024-04-13T10:57:41.414Z,11.20
2024-04-13T11:00:10.641Z,7.70
2024-04-13T11:02:38.786Z,11.50
2024-04-13T11:05:06.276Z,14.10
2024-04-13T11:07:33.003Z,10.10
2024-04-13T11:09:59.882Z,10.30
2024-04-13T11:12:26.730Z,9.40
2024-04-13T11:14:53.383Z,13.80
2024-04-13T11:17:20.060Z,7.00
2024-04-13T11:19:46.897Z,11.00
2024-04-13T11:22:15.332Z,9.90
2024-04-13T11:24:42.294Z,13.10
2024-04-13T11:27:09.536Z,10.10
2024-04-13T11:29:37.175Z,9.30
2024-04-13T11:32:04.061Z,8.70
2024-04-13T11:34:31.362Z,10.40
2024-04-13T11:37:05.004Z,11.80
2024-04-13T11:39:34.403Z,9.50
2024-04-13T11:42:07.251Z,7.80
2024-04-13T11:44:33.986Z,12.00
2024-04-13T11:47:01.867Z,8.60
2024-04-13T11:49:31.852Z,12.70
2024-04-13T11:52:00.632Z,11.80
2024-04-13T11:54:28.834Z,14.20
2024-04-13T11:56:55.858Z,19.80
2024-04-13T11:59:23.292Z,10.20
2024-04-13T12:01:50.250Z,7.80
2024-04-13T12:04:17.692Z,9.20
2024-04-13T12:06:44.994Z,9.70
2024-04-13T12:09:12.870Z,11.60
2024-04-13T12:11:39.658Z,11.00
2024-04-13T12:14:08.087Z,10.20
2024-04-13T12:16:34.682Z,12.40
2024-04-13T12:19:03.601Z,8.00
2024-04-13T12:21:30.903Z,10.60
2024-04-13T12:24:01.011Z,10.80
2024-04-13T12:26:28.808Z,9.60
2024-04-13T12:28:55.605Z,10.70
2024-04-13T12:31:22.251Z,9.60
2024-04-13T12:33:49.024Z,12.00
2024-04-13T12:36:16.083Z,10.70
2024-04-13T12:38:42.820Z,9.30
2024-04-13T12:41:11.675Z,10.90
2024-04-13T12:43:38.465Z,11.90
2024-04-13T12:46:05.402Z,10.10
2024-04-13T12:48:32.171Z,9.90
2024-04-13T12:50:58.851Z,10.50
2024-04-13T12:53:25.674Z,9.40
2024-04-13T12:55:53.396Z,10.20
2024-04-13T12:58:20.548Z,10.60
2024-04-13T13:00:47.318Z,8.90
2024-04-13T13:03:14.141Z,9.70
2024-04-13T13:05:45.577Z,8.50
2024-04-13T13:08:13.303Z,12.60
2024-04-13T13:10:39.967Z,8.10
2024-04-13T13:13:07.307Z,7.50
2024-04-13T13:15:34.172Z,13.20
2024-04-13T13:18:00.976Z,7.50
2024-04-13T13:20:28.219Z,9.40
2024-04-13T13:22:54.896Z,13.70
2024-04-13T13:25:21.588Z,12.10
2024-04-13T13:27:48.575Z,10.30
2024-04-13T13:30:15.873Z,9.90
2024-04-13T13:32:45.967Z,6.80
2024-04-13T13:35:12.920Z,7.40
2024-04-13T13:37:40.053Z,10.30
2024-04-13T13:40:12.525Z,10.10
2024-04-13T13:42:39.356Z,10.50
2024-04-13T13:45:07.053Z,11.80
2024-04-13T13:47:33.988Z,8.80
2024-04-13T13:50:01.227Z,8.60
2024-04-13T13:52:28.174Z,9.00
2024-04-13T13:54:55.111Z,7.90
2024-04-13T13:57:22.059Z,8.30
2024-04-13T13:59:48.724Z,9.70
2024-04-13T14:02:16.666Z,8.20
2024-04-13T14:04:49.284Z,8.30
2024-04-13T14:07:16.976Z,8.30
2024-04-13T14:09:44.929Z,8.30
2024-04-13T14:12:12.291Z,13.30
2024-04-13T14:14:38.949Z,11.00
2024-04-13T14:17:05.748Z,15.00
2024-04-13T14:19:32.396Z,8.80
2024-04-13T14:21:59.726Z,8.50
2024-04-13T14:24:27.735Z,9.00
2024-04-13T14:26:54.566Z,9.70
2024-04-13T14:29:21.698Z,8.90
2024-04-13T14:31:48.852Z,9.70
2024-04-13T14:34:15.572Z,6.90
2024-04-13T14:36:42.764Z,9.90
2024-04-13T14:39:09.430Z,7.40
2024-04-13T14:41:36.365Z,8.80
2024-04-13T14:44:03.396Z,8.80
2024-04-13T14:46:30.514Z,10.60
2024-04-13T14:48:57.315Z,9.50
2024-04-13T14:51:24.318Z,8.00
2024-04-13T14:53:51.653Z,7.70
2024-04-13T14:56:21.563Z,7.50
2024-04-13T14:58:49.935Z,7.00
2024-04-13T15:01:16.867Z,12.20
2024-04-13T15:03:43.794Z,7.90
2024-04-13T15:06:10.797Z,9.30
2024-04-13T15:08:37.786Z,8.60
2024-04-13T15:11:04.820Z,14.70
2024-04-13T15:13:31.526Z,9.00
2024-04-13T15:15:58.497Z,7.10
2024-04-13T15:18:25.752Z,9.50
2024-04-13T15:20:52.641Z,10.90
2024-04-13T15:23:20.229Z,9.00
2024-04-13T15:25:47.453Z,10.50
2024-04-13T15:28:14.374Z,9.60
2024-04-13T15:30:41.609Z,7.90
2024-04-13T15:33:08.993Z,5.90
2024-04-13T15:35:35.691Z,7.70
2024-04-13T15:38:02.915Z,6.80
2024-04-13T15:40:30.424Z,9.80
2024-04-13T15:42:57.458Z,10.70
2024-04-13T15:45:24.303Z,12.60
2024-04-13T15:47:51.241Z,9.90
2024-04-13T15:50:18.057Z,10.40
2024-04-13T15:52:47.389Z,9.30
2024-04-13T15:55:15.942Z,8.40
2024-04-13T15:57:42.983Z,11.60
2024-04-13T16:00:13.876Z,9.60
2024-04-13T16:02:41.496Z,8.50
2024-04-13T16:05:08.748Z,10.70
2024-04-13T16:07:35.992Z,9.30
2024-04-13T16:10:03.066Z,8.10
2024-04-13T16:12:30.306Z,9.30
2024-04-13T16:14:57.266Z,9.50
2024-04-13T16:17:24.240Z,6.00
2024-04-13T16:19:51.556Z,10.20
2024-04-13T16:22:18.439Z,7.60
2024-04-13T16:24:48.810Z,6.00
2024-04-13T16:27:17.532Z,6.50
2024-04-13T16:29:44.176Z,7.20
2024-04-13T16:32:11.755Z,6.00
2024-04-13T16:34:39.161Z,9.00
2024-04-13T16:37:06.177Z,10.30
2024-04-13T16:39:33.285Z,4.90
2024-04-13T16:42:00.058Z,8.30
2024-04-13T16:44:30.159Z,5.70
2024-04-13T16:46:57.800Z,6.30
2024-04-13T16:49:25.193Z,6.30
2024-04-13T16:51:53.395Z,5.70
2024-04-13T16:54:22.172Z,7.80
2024-04-13T16:56:49.160Z,8.30
2024-04-13T16:59:16.221Z,9.10
2024-04-13T17:01:43.084Z,8.80
2024-04-13T17:04:10.083Z,4.80
2024-04-13T17:06:37.187Z,6.00
2024-04-13T17:09:04.861Z,7.90
2024-04-13T17:11:31.936Z,10.80
2024-04-13T17:13:58.673Z,10.90
2024-04-13T17:16:25.944Z,10.60
2024-04-13T17:18:53.578Z,7.90
2024-04-13T17:21:20.905Z,6.60
2024-04-13T17:23:47.995Z,6.10
2024-04-13T17:26:14.958Z,10.20
2024-04-13T17:28:41.982Z,9.20
2024-04-13T17:31:10.754Z,10.40
2024-04-13T17:33:39.843Z,8.70
2024-04-13T17:36:09.767Z,11.90
2024-04-13T17:38:37.761Z,9.60
2024-04-13T17:41:04.868Z,9.60
2024-04-13T17:43:31.986Z,10.20
2024-04-13T17:45:59.100Z,9.50
2024-04-13T17:48:26.424Z,7.00
2024-04-13T17:50:54.664Z,5.30
2024-04-13T17:53:21.820Z,10.90
2024-04-13T17:55:48.728Z,7.20
2024-04-13T17:58:15.773Z,6.60
2024-04-13T18:00:42.695Z,9.70
2024-04-13T18:03:09.945Z,9.90
2024-04-13T18:05:37.105Z,14.10
2024-04-13T18:08:05.899Z,11.70
2024-04-13T18:10:35.928Z,12.20
2024-04-13T18:13:02.893Z,11.50
2024-04-13T18:15:30.592Z,10.90
2024-04-13T18:17:57.801Z,11.80
2024-04-13T18:20:26.431Z,10.30
2024-04-13T18:22:53.258Z,9.10
2024-04-13T18:25:20.196Z,10.90
2024-04-13T18:27:47.400Z,8.00
2024-04-13T18:30:14.977Z,11.80
2024-04-13T18:32:42.194Z,9.80
2024-04-13T18:35:09.664Z,10.50
2024-04-13T18:37:36.735Z,12.10
2024-04-13T18:40:04.297Z,11.20
2024-04-13T18:42:31.114Z,14.60
2024-04-13T18:44:58.645Z,14.70
2024-04-13T18:47:25.315Z,14.00
2024-04-13T18:49:54.994Z,13.70
2024-04-13T18:52:23.030Z,15.80
2024-04-13T18:54:50.421Z,18.80
2024-04-13T18:57:17.464Z,19.70
2024-04-13T18:59:44.493Z,17.60
2024-04-13T19:02:14.306Z,13.80
2024-04-13T19:04:41.306Z,14.50
2024-04-13T19:07:08.030Z,13.10
2024-04-13T19:09:35.095Z,13.10
2024-04-13T19:12:01.859Z,17.30
2024-04-13T19:14:28.910Z,16.00
2024-04-13T19:16:55.700Z,10.90
2024-04-13T19:19:22.457Z,13.00
2024-04-13T19:21:52.945Z,19.80
2024-04-13T19:24:20.368Z,11.70
2024-04-13T19:26:47.422Z,10.70
2024-04-13T19:29:14.991Z,15.20
2024-04-13T19:31:41.966Z,13.90
2024-04-13T19:34:09.902Z,14.90
2024-04-13T19:36:36.838Z,12.60
2024-04-13T19:39:03.847Z,16.20
2024-04-13T19:41:30.602Z,9.70
2024-04-13T19:43:57.291Z,13.10
2024-04-13T19:46:24.272Z,17.00
2024-04-13T19:48:51.095Z,14.30
2024-04-13T19:51:17.880Z,12.00
2024-04-13T19:53:48.148Z,14.30
2024-04-13T19:56:15.563Z,10.80
2024-04-13T19:58:42.411Z,14.00
2024-04-13T20:01:10.034Z,13.60
2024-04-13T20:03:37.842Z,9.10
2024-04-13T20:06:05.525Z,10.70
2024-04-13T20:08:32.313Z,14.30
2024-04-13T20:11:05.588Z,14.10
2024-04-13T20:13:32.426Z,15.60
2024-04-13T20:16:17.072Z,11.10
2024-04-13T20:18:43.852Z,11.30
2024-04-13T20:21:11.432Z,11.90
2024-04-13T20:23:38.405Z,13.90
2024-04-13T20:26:05.461Z,12.20
2024-04-13T20:28:32.033Z,13.10
2024-04-13T20:30:59.277Z,14.80
2024-04-13T20:33:26.204Z,15.40
2024-04-13T20:35:53.348Z,13.50
2024-04-13T20:38:21.312Z,14.10
2024-04-13T20:40:48.001Z,14.80
2024-04-13T20:43:15.311Z,16.50
2024-04-13T20:45:42.648Z,17.10
2024-04-13T20:48:11.419Z,15.50
2024-04-13T20:50:41.007Z,17.00
2024-04-13T20:53:08.823Z,14.40
2024-04-13T20:55:35.887Z,11.70
2024-04-13T20:58:02.935Z,14.40
2024-04-13T21:00:32.020Z,18.50
2024-04-13T21:02:58.726Z,18.10
2024-04-13T21:05:25.592Z,12.30
2024-04-13T21:07:52.263Z,13.00
2024-04-13T21:10:19.130Z,12.30
2024-04-13T21:12:45.753Z,13.30
2024-04-13T21:15:12.401Z,13.40
2024-04-13T21:17:39.067Z,13.70
2024-04-13T21:20:07.082Z,11.10
2024-04-13T21:22:33.703Z,18.70
2024-04-13T21:25:02.788Z,12.10
2024-04-13T21:27:29.990Z,12.70
2024-04-13T21:29:56.727Z,15.60
2024-04-13T21:32:23.559Z,16.60
2024-04-13T21:34:50.912Z,11.30
2024-04-13T21:37:17.625Z,9.80
2024-04-13T21:39:44.412Z,13.50
2024-04-13T21:42:11.375Z,12.00
2024-04-13T21:44:38.280Z,12.80
2024-04-13T21:47:05.396Z,16.10
2024-04-13T21:49:32.263Z,10.60
2024-04-13T21:51:59.162Z,9.70
2024-04-13T21:54:26.442Z,8.90
2024-04-13T21:56:53.334Z,12.00
2024-04-13T21:59:20.193Z,11.50
2024-04-13T22:01:47.228Z,10.60
2024-04-13T22:04:14.049Z,13.20
2024-04-13T22:06:42.200Z,9.10
2024-04-13T22:09:09.297Z,10.80
2024-04-13T22:11:35.990Z,8.90
2024-04-13T22:14:02.596Z,14.40
2024-04-13T22:16:29.772Z,8.70
2024-04-13T22:18:59.423Z,10.10
2024-04-13T22:21:27.778Z,13.00
2024-04-13T22:23:54.921Z,18.90
2024-04-13T22:26:21.746Z,11.30
2024-04-13T22:28:48.409Z,10.90
2024-04-13T22:31:15.436Z,12.20
2024-04-13T22:33:42.554Z,10.20
2024-04-13T22:36:11.450Z,11.10
2024-04-13T22:38:38.507Z,11.40
2024-04-13T22:41:05.267Z,10.60
2024-04-13T22:43:32.034Z,12.00
2024-04-13T22:45:59.009Z,8.80
2024-04-13T22:48:26.031Z,8.60
2024-04-13T22:50:53.151Z,14.20
2024-04-13T22:53:19.777Z,14.30
2024-04-13T22:55:46.661Z,11.60
2024-04-13T22:58:13.531Z,13.70
2024-04-13T23:00:41.640Z,12.30
2024-04-13T23:03:08.339Z,12.00
2024-04-13T23:05:34.990Z,10.60
2024-04-13T23:08:01.633Z,10.90
2024-04-13T23:10:28.375Z,12.90
2024-04-13T23:12:55.122Z,15.80
2024-04-13T23:15:21.820Z,11.70
2024-04-13T23:17:48.567Z,13.30
2024-04-13T23:20:15.248Z,11.40
2024-04-13T23:22:41.852Z,10.50
2024-04-13T23:25:09.344Z,13.40
2024-04-13T23:27:35.966Z,11.40
2024-04-13T23:30:04.775Z,12.00
2024-04-13T23:32:32.204Z,9.40
2024-04-13T23:34:58.802Z,9.90
2024-04-13T23:37:26.706Z,9.60
2024-04-13T23:39:53.533Z,13.20
2024-04-13T23:42:20.494Z,13.60
2024-04-13T23:44:49.878Z,10.10
2024-04-13T23:47:16.608Z,9.70
2024-04-13T23:49:44.063Z,9.80
2024-04-13T23:52:11.265Z,10.50
2024-04-13T23:54:38.175Z,13.10
2024-04-13T23:57:05.315Z,8.80
2024-04-13T23:59:32.340Z,8.00
